Latest Weather Observations for Parkes Airport

IDN60801

Issued at 10:52 am EST Tuesday 19 June 2018 (issued every 10 minutes, with the page automatically refreshed every 10 minutes)

About weather observations | Map of weather stations | Latest weather observations for NSW | Other Formats
Station Details ID: 065068 Name: PARKES AIRPORT AWS Lat: -33.13 Lon: 148.24 Height: 323.3 m
Data from the previous 72 hours. | See also: Recent months at Parkes Airport
Date/Time
EST
Temp
°C
App
Temp
°C
Dew
Point
°C
Rel
Hum
%
Delta-T
°C
Wind Press
QNH
hPa
Press
MSL
hPa
Rain since
9am
mm
Dir  Spd
km/h
Gust
km/h
Spd
kts
Gust
kts
19/10:34am 8.1 5.2 8.0 99 0.0 SSW 13 19 7 10 1026.7 1027.1 0.0
19/10:30am 7.7 5.1 7.6 99 0.0 SSW 11 17 6 9 1026.7 1027.1 0.0
19/10:28am 7.6 4.9 7.5 99 0.0 SSW 11 17 6 9 1026.8 1027.2 0.0
19/10:00am 5.6 1.7 5.5 99 0.0 SW 15 17 8 9 1026.8 1027.2 0.0
19/09:30am 4.3 1.7 4.2 99 0.0 SSW 7 9 4 5 1026.7 1027.1 0.0
19/09:00am 3.5 0.7 3.4 99 0.0 S 7 9 4 5 1026.4 1026.8 0.0
19/08:30am 3.5 -0.4 3.4 99 0.0 WSW 13 15 7 8 1026.1 1026.5 0.0
19/08:00am 3.5 0.0 3.4 99 0.0 SSW 11 15 6 8 1025.6 1026.0 0.0
19/07:30am 3.5 -0.8 3.4 99 0.0 SSW 15 19 8 10 1025.3 1025.7 0.0
19/07:00am 3.6 -1.0 3.5 99 0.0 SW 17 19 9 10 1024.9 1025.3 0.0
19/06:30am 3.6 0.5 3.5 99 0.0 S 9 13 5 7 1024.4 1024.7 0.0
19/06:00am 4.0 1.5 3.9 99 0.0 SSW 6 7 3 4 1023.9 1024.2 0.0
19/05:30am 4.4 1.4 4.3 99 0.0 S 9 11 5 6 1023.5 1023.9 0.0
19/05:00am 5.0 2.5 4.9 99 0.0 S 7 9 4 5 1023.6 1024.0 0.0
19/04:30am 5.3 2.1 5.2 99 0.0 S 11 15 6 8 1024.0 1024.3 0.0
19/04:26am 5.4 1.9 5.3 99 0.0 S 13 15 7 8 1023.9 1024.2 0.0
19/04:00am 5.5 2.0 5.4 99 0.0 S 13 17 7 9 1023.9 1024.2 0.0
19/03:30am 5.4 2.6 5.3 99 0.0 SW 9 15 5 8 1023.9 1024.2 0.0
19/03:00am 4.8 1.9 4.7 99 0.0 S 9 11 5 6 1023.9 1024.2 0.0
19/02:36am 3.5 2.0 3.2 98 0.1 CALM 0 9 0 5 1023.7 1024.1 0.0
19/02:33am 3.3 1.8 3.0 98 0.1 CALM 0 0 0 0 1023.5 1023.9 0.0
19/02:30am 3.4 1.9 3.1 98 0.1 CALM 0 0 0 0 1023.5 1023.9 0.0
19/02:00am 2.6 1.0 2.2 97 0.2 CALM 0 0 0 0 1023.4 1023.8 0.0
19/01:56am 3.0 1.4 2.6 97 0.2 CALM 0 0 0 0 1023.3 1023.7 0.0
19/01:30am 3.3 1.7 2.7 96 0.2 CALM 0 0 0 0 1023.2 1023.6 0.0
19/01:21am 3.4 1.8 2.7 95 0.3 CALM 0 0 0 0 1023.3 1023.7 0.0
19/01:00am 4.2 2.8 3.8 97 0.2 CALM 0 0 0 0 1023.4 1023.8 0.0
19/12:30am 4.3 3.0 3.9 97 0.2 CALM 0 0 0 0 1023.4 1023.8 0.0
19/12:00am 3.5 1.5 2.3 92 0.5 S 2 11 1 6 1023.5 1023.9 0.0
 
Date/Time
EST
Temp
°C
App
Temp
°C
Dew
Point
°C
Rel
Hum
%
Delta-T
°C
Wind Press
QNH
hPa
Press
MSL
hPa
Rain since
9am
mm
Dir  Spd
km/h
Gust
km/h
Spd
kts
Gust
kts
18/11:30pm 5.0 3.7 4.3 95 0.3 CALM 0 0 0 0 1023.6 1024.0 0.0
18/11:00pm 4.9 3.5 3.6 91 0.5 CALM 0 0 0 0 1023.6 1024.0 0.0
18/10:30pm 6.1 4.5 4.4 89 0.7 SSW 2 6 1 3 1023.6 1024.0 0.0
18/10:00pm 6.9 4.5 5.2 89 0.8 S 7 7 4 4 1023.6 1024.0 0.0
18/09:30pm 6.9 5.8 5.1 88 0.8 CALM 0 0 0 0 1023.5 1023.9 0.0
18/09:00pm 7.6 5.7 5.1 84 1.1 SSW 4 7 2 4 1023.4 1023.8 0.0
18/08:30pm 7.9 5.7 5.4 84 1.1 SSE 6 7 3 4 1023.4 1023.8 0.0
18/08:00pm 7.5 5.2 5.5 87 0.9 S 7 9 4 5 1023.4 1023.8 0.0
18/07:30pm 7.3 4.4 4.6 83 1.2 SSW 9 11 5 6 1023.3 1023.7 0.0
18/07:00pm 8.8 6.7 5.9 82 1.3 SSW 6 11 3 6 1023.0 1023.4 0.0
18/06:30pm 8.4 7.4 5.7 83 1.2 CALM 0 6 0 3 1022.8 1023.2 0.0
18/06:00pm 7.9 4.6 4.8 81 1.4 SW 11 15 6 8 1022.5 1022.9 0.0
18/05:30pm 9.5 5.6 5.5 76 1.9 WSW 15 19 8 10 1022.3 1022.7 0.0
18/05:00pm 10.7 6.6 6.1 73 2.2 SW 17 20 9 11 1022.2 1022.6 0.0
18/04:30pm 10.8 6.7 6.2 73 2.2 SSW 17 20 9 11 1022.0 1022.4 0.0
18/04:00pm 10.9 6.2 5.9 71 2.4 SSW 20 28 11 15 1022.1 1022.5 0.0
18/03:30pm 10.9 4.6 5.9 71 2.4 SSW 28 33 15 18 1021.9 1022.2 0.0
18/03:00pm 11.2 5.6 5.5 68 2.7 SSW 24 35 13 19 1021.6 1021.9 0.0
18/02:30pm 11.4 5.5 5.7 68 2.7 SSW 26 35 14 19 1021.5 1021.8 0.0
18/02:00pm 10.6 4.6 5.4 70 2.4 SSW 26 33 14 18 1021.7 1022.0 0.0
18/01:30pm 10.5 5.0 5.7 72 2.3 SW 24 33 13 18 1021.7 1022.0 0.0
18/01:00pm 10.6 4.7 5.8 72 2.2 SW 26 35 14 19 1021.7 1022.0 0.0
18/12:30pm 10.2 5.0 5.4 72 2.2 SSW 22 32 12 17 1022.1 1022.5 0.0
18/12:01pm 9.7 4.5 5.7 76 1.9 SW 22 28 12 15 1022.6 1023.0 0.0
18/12:00pm 9.9 4.8 6.1 77 1.8 SW 22 28 12 15 1022.6 1023.0 0.0
18/11:44am 9.2 3.6 5.2 76 1.8 SW 24 32 13 17 1022.7 1023.1 0.0
18/11:43am 9.3 3.7 5.3 76 1.8 SW 24 32 13 17 1022.7 1023.1 0.0
18/11:30am 9.5 4.4 5.9 78 1.7 SSW 22 30 12 16 1022.7 1023.1 0.0
18/11:00am 9.0 4.2 5.6 79 1.6 SW 20 26 11 14 1022.5 1022.9 0.0
18/10:30am 8.4 3.5 5.3 81 1.4 SW 20 26 11 14 1022.7 1023.1 0.0
18/10:00am 7.9 3.3 5.4 84 1.1 SSW 19 22 10 12 1022.5 1022.9 0.0
18/09:30am 7.8 4.0 5.6 86 1.0 SW 15 20 8 11 1022.3 1022.7 0.0
18/09:00am 7.4 3.2 5.7 89 0.8 SW 17 20 9 11 1021.8 1022.1 4.4
18/08:30am 7.2 3.8 5.7 90 0.7 SW 13 20 7 11 1021.5 1021.8 4.4
18/08:00am 7.0 3.1 5.5 90 0.7 SW 15 20 8 11 1021.1 1021.4 4.4
18/07:30am 6.9 1.7 5.4 90 0.7 SSW 22 28 12 15 1020.8 1021.1 4.4
18/07:00am 6.9 3.0 5.5 91 0.6 SW 15 19 8 10 1020.6 1020.9 4.4
18/06:30am 7.0 1.7 5.2 88 0.8 SSW 22 33 12 18 1020.1 1020.5 4.4
18/06:00am 7.2 2.0 5.5 89 0.8 SSW 22 30 12 16 1020.0 1020.4 4.4
18/05:30am 7.3 2.2 5.8 90 0.7 SW 22 28 12 15 1019.5 1019.9 4.4
18/05:00am 7.4 2.3 5.9 90 0.7 SSW 22 28 12 15 1019.2 1019.5 4.4
18/04:45am 7.4 2.7 6.0 91 0.6 SW 20 28 11 15 1019.1 1019.4 4.4
18/04:30am 7.4 2.7 5.9 90 0.7 SW 20 26 11 14 1018.9 1019.2 4.4
18/04:11am 7.5 1.6 5.8 89 0.8 SW 26 37 14 20 1018.9 1019.2 4.4
18/04:00am 7.7 2.3 6.3 91 0.6 SW 24 35 13 19 1018.9 1019.2 4.4
18/03:30am 7.7 3.8 7.0 95 0.3 SSW 17 20 9 11 1018.6 1018.9 4.4
18/03:00am 7.8 2.9 7.1 95 0.3 SW 22 28 12 15 1018.3 1018.6 4.4
18/02:30am 7.7 3.2 7.1 96 0.3 SW 20 28 11 15 1018.2 1018.5 4.4
18/02:00am 7.6 2.8 7.2 97 0.2 SW 22 32 12 17 1018.1 1018.4 4.2
18/01:44am 7.6 3.2 7.3 98 0.1 SW 20 28 11 15 1018.1 1018.4 4.2
18/01:30am 7.5 3.6 7.2 98 0.1 SSW 17 22 9 12 1018.2 1018.5 4.0
18/01:00am 7.5 2.3 7.1 97 0.2 WSW 24 30 13 16 1018.0 1018.3 3.0
18/12:59am 7.5 2.3 7.1 97 0.2 WSW 24 30 13 16 1018.0 1018.3 3.0
18/12:30am 7.5 2.3 7.1 97 0.2 WSW 24 32 13 17 1018.2 1018.5 2.8
18/12:00am 7.5 1.5 7.1 97 0.2 WSW 28 37 15 20 1018.2 1018.5 2.8
 
Date/Time
EST
Temp
°C
App
Temp
°C
Dew
Point
°C
Rel
Hum
%
Delta-T
°C
Wind Press
QNH
hPa
Press
MSL
hPa
Rain since
9am
mm
Dir  Spd
km/h
Gust
km/h
Spd
kts
Gust
kts
17/11:47pm 7.4 1.4 7.0 97 0.2 WSW 28 35 15 19 1018.2 1018.5 2.8
17/11:34pm 7.4 1.7 6.8 96 0.3 WSW 26 33 14 18 1018.2 1018.5 2.8
17/11:30pm 7.4 1.3 6.8 96 0.3 WSW 28 39 15 21 1018.2 1018.5 2.8
17/11:00pm 7.5 1.4 6.8 95 0.3 WSW 28 39 15 21 1018.1 1018.4 2.8
17/10:30pm 7.4 1.3 6.8 96 0.3 WSW 28 37 15 20 1018.2 1018.5 2.6
17/10:00pm 7.4 1.3 6.7 95 0.3 W 28 39 15 21 1018.3 1018.6 2.6
17/09:30pm 7.4 0.9 6.7 95 0.3 W 30 39 16 21 1018.2 1018.5 2.6
17/09:00pm 7.3 2.0 6.6 95 0.3 W 24 33 13 18 1018.4 1018.7 2.4
17/08:30pm 7.2 1.5 6.5 95 0.3 W 26 35 14 19 1018.4 1018.7 2.0
17/08:06pm 7.2 1.0 6.3 94 0.4 W 28 37 15 20 1018.4 1018.7 1.8
17/08:00pm 7.2 1.4 6.3 94 0.4 W 26 37 14 20 1018.4 1018.7 1.8
17/07:30pm 7.1 2.0 5.9 92 0.5 WNW 22 32 12 17 1018.2 1018.5 1.4
17/07:02pm 6.8 2.0 5.7 93 0.5 NW 20 24 11 13 1018.1 1018.4 1.2
17/07:00pm 6.8 2.0 5.7 93 0.5 NW 20 26 11 14 1018.1 1018.4 1.2
17/06:30pm 6.6 2.0 5.6 93 0.5 NW 19 24 10 13 1018.1 1018.4 0.6
17/06:00pm 6.4 2.2 5.5 94 0.4 NW 17 22 9 12 1018.1 1018.4 0.6
17/05:30pm 6.4 2.6 5.7 95 0.3 NW 15 19 8 10 1018.3 1018.6 0.6
17/05:23pm 6.4 1.8 5.5 94 0.4 WNW 19 22 10 12 1018.3 1018.6 0.6
17/05:05pm 6.4 0.8 5.5 94 0.4 W 24 33 13 18 1018.2 1018.5 0.6
17/05:00pm 6.4 0.8 5.5 94 0.4 W 24 33 13 18 1018.3 1018.6 0.6
17/04:43pm 6.4 1.8 5.7 95 0.3 W 19 24 10 13 1018.5 1018.8 0.4
17/04:30pm 6.5 1.7 5.6 94 0.4 W 20 32 11 17 1018.4 1018.7 0.4
17/04:13pm 6.3 1.5 5.4 94 0.4 WSW 20 28 11 15 1018.2 1018.5 0.4
17/04:11pm 6.3 1.1 5.4 94 0.4 WSW 22 32 12 17 1018.2 1018.5 0.4
17/04:00pm 6.3 0.2 4.9 91 0.6 W 26 33 14 18 1018.2 1018.5 0.4
17/03:54pm 6.4 0.8 5.2 92 0.5 W 24 33 13 18 1018.1 1018.4 0.4
17/03:30pm 6.5 -0.3 5.3 92 0.5 W 30 39 16 21 1017.9 1018.2 0.4
17/03:00pm 6.5 0.5 5.1 91 0.6 W 26 37 14 20 1017.7 1018.0 0.4
17/02:30pm 6.5 0.5 5.3 92 0.5 W 26 37 14 20 1017.5 1017.8 0.4
17/02:00pm 6.7 0.3 5.0 89 0.8 W 28 46 15 25 1017.4 1017.7 0.2
17/01:57pm 6.7 0.3 5.0 89 0.8 W 28 46 15 25 1017.4 1017.7 0.2
17/01:30pm 7.0 1.0 5.2 88 0.8 W 26 35 14 19 1017.3 1017.6 0.2
17/01:17pm 6.6 -0.2 5.1 90 0.7 W 30 48 16 26 1017.1 1017.5 0.2
17/01:00pm 6.6 1.3 5.2 91 0.6 WNW 22 33 12 18 1017.4 1017.7 0.2
17/12:44pm 6.4 1.6 5.5 94 0.4 W 20 30 11 16 1017.6 1017.9 0.2
17/12:30pm 6.3 1.5 5.6 95 0.3 WNW 20 32 11 17 1017.9 1018.2 0.2
17/12:20pm 6.0 0.3 5.0 93 0.4 WNW 24 30 13 16 1018.1 1018.4 0.2
17/12:00pm 6.1 0.4 5.1 93 0.4 W 24 32 13 17 1018.3 1018.6 0.2
17/11:50am 5.8 0.5 4.8 93 0.4 W 22 30 12 16 1018.4 1018.7 0.2
17/11:40am 5.7 -0.4 4.8 94 0.4 W 26 33 14 18 1018.5 1018.8 0.2
17/11:31am 5.8 0.1 4.8 93 0.4 W 24 32 13 17 1018.6 1018.9 0.2
17/11:30am 5.8 0.1 4.8 93 0.4 W 24 32 13 17 1018.6 1018.9 0.2
17/11:16am 5.9 0.2 5.0 94 0.4 W 24 35 13 19 1018.7 1019.0 0.2
17/11:00am 5.7 0.0 4.7 93 0.4 W 24 35 13 19 1018.7 1019.0 0.2
17/10:30am 5.4 -1.3 3.7 89 0.7 W 28 35 15 19 1018.8 1019.1 0.2
17/10:02am 5.3 -0.2 4.0 91 0.6 WSW 22 32 12 17 1018.8 1019.1 0.0
17/10:00am 5.4 -0.4 4.2 92 0.5 W 24 32 13 17 1018.8 1019.1 0.0
17/09:38am 4.7 -1.2 3.7 93 0.4 W 24 37 13 20 1018.8 1019.1 0.0
17/09:30am 5.1 -0.4 4.1 93 0.4 W 22 30 12 16 1018.8 1019.1 0.0
17/09:11am 5.4 -0.1 4.1 91 0.6 W 22 33 12 18 1018.5 1018.8 0.0
17/09:00am 5.0 -0.1 4.3 95 0.3 WSW 20 28 11 15 1018.3 1018.6 7.2
17/08:30am 4.8 0.3 4.2 96 0.3 WSW 17 24 9 13 1018.0 1018.3 6.6
17/08:29am 4.8 0.3 4.2 96 0.3 WSW 17 24 9 13 1018.0 1018.3 6.6
17/08:13am 4.8 0.3 4.2 96 0.3 WSW 17 24 9 13 1017.7 1018.0 6.6
17/08:00am 4.9 0.8 4.5 97 0.2 WSW 15 20 8 11 1017.7 1018.0 6.6
17/07:30am 4.9 -0.6 3.9 93 0.4 W 22 32 12 17 1017.5 1017.8 6.0
17/07:00am 5.1 0.1 3.6 90 0.6 W 19 32 10 17 1017.3 1017.6 6.0
17/06:30am 5.0 1.2 3.7 91 0.6 W 13 19 7 10 1017.0 1017.4 6.0
17/06:24am 5.0 0.8 3.7 91 0.6 W 15 19 8 10 1016.9 1017.3 6.0
17/06:04am 5.0 0.4 3.8 92 0.5 WSW 17 28 9 15 1016.8 1017.2 5.8
17/06:00am 4.9 0.3 3.7 92 0.5 W 17 22 9 12 1016.8 1017.2 5.8
17/05:30am 4.9 0.0 4.0 94 0.4 W 19 24 10 13 1016.7 1017.1 5.8
17/05:00am 5.2 1.0 4.0 92 0.5 W 15 19 8 10 1016.5 1016.8 5.8
17/04:43am 5.1 0.9 3.9 92 0.5 W 15 20 8 11 1016.4 1016.7 5.8
17/04:30am 5.1 -0.4 3.9 92 0.5 W 22 28 12 15 1016.3 1016.6 5.6
17/04:00am 5.3 0.8 4.0 91 0.6 NW 17 22 9 12 1016.3 1016.6 5.2
17/03:30am 5.5 0.5 3.8 89 0.7 NW 19 22 10 12 1016.5 1016.8 5.2
17/03:00am 5.5 1.4 4.3 92 0.5 NW 15 20 8 11 1016.6 1016.9 5.0
17/02:30am 4.9 2.0 4.5 97 0.2 N 9 15 5 8 1016.8 1017.2 5.0
17/02:00am 4.6 0.5 4.2 97 0.2 N 15 19 8 10 1017.0 1017.4 5.0
17/01:30am 4.0 0.9 3.7 98 0.1 N 9 13 5 7 1017.1 1017.5 5.0
17/01:00am 3.3 0.5 2.9 97 0.2 NNE 7 9 4 5 1017.3 1017.6 5.0
17/12:30am 3.2 0.3 2.6 96 0.2 NNE 7 9 4 5 1017.5 1017.8 5.0
17/12:00am 3.3 0.6 2.6 95 0.3 NNE 6 7 3 4 1017.8 1018.1 5.0
 
Date/Time
EST
Temp
°C
App
Temp
°C
Dew
Point
°C
Rel
Hum
%
Delta-T
°C
Wind Press
QNH
hPa
Press
MSL
hPa
Rain since
9am
mm
Dir  Spd
km/h
Gust
km/h
Spd
kts
Gust
kts
16/11:30pm 4.5 1.5 3.9 96 0.3 N 9 13 5 7 1018.1 1018.4 5.0
16/11:00pm 3.5 0.3 2.9 96 0.2 NE 9 11 5 6 1018.4 1018.7 5.0
16/10:30pm 3.7 2.2 2.8 94 0.4 CALM 0 7 0 4 1018.4 1018.7 5.0
16/10:00pm 4.8 2.3 3.8 93 0.4 NW 6 7 3 4 1018.4 1018.7 5.0
16/09:30pm 5.8 3.2 4.3 90 0.7 WNW 7 9 4 5 1018.3 1018.6 5.0
16/09:00pm 6.6 3.0 5.2 91 0.6 W 13 17 7 9 1018.4 1018.7 5.0
16/08:30pm 6.9 2.6 5.4 90 0.7 WNW 17 24 9 13 1018.3 1018.6 5.0
16/08:00pm 6.9 1.7 5.4 90 0.7 WNW 22 33 12 18 1018.1 1018.4 4.8
16/07:30pm 6.5 1.9 5.5 93 0.5 WNW 19 26 10 14 1017.9 1018.2 4.4
16/07:00pm 6.3 -1.0 4.6 89 0.7 W 32 54 17 29 1017.8 1018.1 3.4
16/06:53pm 5.8 -0.4 2.1 77 1.5 W 24 54 13 29 1017.9 1018.2 1.8
16/06:30pm 8.8 3.9 5.0 77 1.7 WNW 20 26 11 14 1016.7 1017.1 0.2
16/06:00pm 8.7 3.8 5.3 79 1.6 WNW 20 28 11 15 1016.6 1016.9 0.2
16/05:30pm 9.0 1.6 5.0 76 1.8 WNW 33 46 18 25 1016.5 1016.8 0.2
16/05:00pm 11.7 5.4 1.4 49 4.4 WNW 24 39 13 21 1016.0 1016.3 0.0
16/04:30pm 12.0 4.8 0.8 46 4.8 WNW 28 37 15 20 1015.7 1016.0 0.0
16/04:00pm 12.6 4.3 0.0 42 5.3 NW 33 46 18 25 1015.6 1015.9 0.0
16/03:46pm 13.0 5.4 0.4 42 5.4 NW 30 48 16 26 1015.5 1015.8 0.0
16/03:30pm 13.0 4.8 0.4 42 5.4 NW 33 46 18 25 1015.6 1015.9 0.0
16/03:00pm 13.8 5.9 1.1 42 5.5 WNW 32 39 17 21 1015.5 1015.8 0.0
16/02:30pm 13.4 5.5 0.8 42 5.4 NW 32 43 17 23 1015.8 1016.1 0.0
16/02:00pm 14.2 7.1 1.2 41 5.7 WNW 28 37 15 20 1016.0 1016.3 0.0
16/01:30pm 13.0 6.7 1.7 46 5.0 WNW 24 32 13 17 1016.6 1016.9 0.0
16/01:00pm 13.2 6.1 1.5 45 5.1 WNW 28 39 15 21 1017.1 1017.5 0.0
16/12:30pm 14.0 6.7 2.3 45 5.2 WNW 30 39 16 21 1017.6 1017.9 0.0
16/12:00pm 12.7 7.9 4.7 58 3.7 WNW 19 24 10 13 1018.4 1018.7 0.0
16/11:30am 12.8 8.4 4.8 58 3.7 NW 17 26 9 14 1019.0 1019.3 0.0
16/11:00am 11.3 7.4 5.2 66 2.8 NW 15 20 8 11 1019.6 1020.0 0.0

Other Formats:

Comma delimited format used in spreadsheet applications
http://www.bom.gov.au/fwo/IDN60801/IDN60801.95717.axf

JavaScript Object Notation format (JSON) in row-major order
http://www.bom.gov.au/fwo/IDN60801/IDN60801.95717.json